Time;durP1;ratioP1;P1;durP2;ratioP2;P2;SDS_P1;SDS_P2;PMS_P1;PMS_P2;Temp;Humidity;BMP_temperature;BMP_pressure;BME280_temperature;BME280_humidity;BME280_pressure;Samples;Min_cycle;Max_cycle;Signal;HPM_P1;HPM_P2
2022/01/01 00:01:21;;;;;;;20.13;13.40;;;;;;;;;;5009853;28;20849;-58
2022/01/01 00:03:47;;;;;;;19.67;12.67;;;;;;;;;;5006088;28;20311;-60
2022/01/01 00:06:13;;;;;;;21.77;12.90;;;;;;;;;;5015316;28;20228;-57
2022/01/01 00:08:39;;;;;;;18.30;12.27;;;;;;;;;;5023649;28;20848;-58
2022/01/01 00:11:05;;;;;;;18.50;12.03;;;;;;;;;;5007971;28;20233;-57
2022/01/01 00:13:30;;;;;;;22.60;12.33;;;;;;;;;;5014424;28;20327;-57
2022/01/01 00:15:56;;;;;;;17.80;13.13;;;;;;;;;;5006542;28;20812;-57
2022/01/01 00:18:22;;;;;;;23.23;12.97;;;;;;;;;;5018397;28;20231;-57
2022/01/01 00:20:48;;;;;;;19.57;13.57;;;;;;;;;;5015595;28;20237;-57
2022/01/01 00:23:14;;;;;;;18.50;12.67;;;;;;;;;;5019315;28;20232;-57
2022/01/01 00:25:40;;;;;;;20.60;12.77;;;;;;;;;;5019440;28;20984;-57
2022/01/01 00:28:06;;;;;;;21.33;13.93;;;;;;;;;;5010328;28;20910;-57
2022/01/01 00:30:32;;;;;;;20.43;13.17;;;;;;;;;;5012579;28;20319;-57
2022/01/01 00:32:58;;;;;;;20.13;13.70;;;;;;;;;;5012616;28;20228;-58
2022/01/01 00:35:24;;;;;;;19.23;12.27;;;;;;;;;;5014250;28;20243;-56
2022/01/01 00:37:50;;;;;;;18.83;13.77;;;;;;;;;;5015289;28;20224;-57
2022/01/01 00:40:18;;;;;;;23.70;14.00;;;;;;;;;;5012424;28;20241;-56
2022/01/01 00:42:44;;;;;;;20.43;14.07;;;;;;;;;;4997248;28;20235;-57
2022/01/01 00:45:10;;;;;;;19.10;13.53;;;;;;;;;;5015583;28;20232;-57
2022/01/01 00:47:36;;;;;;;26.63;14.87;;;;;;;;;;5009809;28;20877;-56
2022/01/01 00:50:02;;;;;;;23.60;14.80;;;;;;;;;;5002550;28;20502;-57
2022/01/01 00:52:28;;;;;;;24.93;15.67;;;;;;;;;;5009355;28;20259;-57
2022/01/01 00:54:54;;;;;;;22.37;14.60;;;;;;;;;;5005004;28;20250;-57
2022/01/01 00:57:20;;;;;;;23.30;15.37;;;;;;;;;;5009273;28;20223;-57
2022/01/01 00:59:46;;;;;;;24.70;16.30;;;;;;;;;;5002027;28;21044;-57
2022/01/01 01:02:12;;;;;;;26.70;16.27;;;;;;;;;;5005553;28;20236;-57
2022/01/01 01:04:38;;;;;;;24.93;15.93;;;;;;;;;;5014832;28;20278;-57
2022/01/01 01:07:04;;;;;;;24.50;15.97;;;;;;;;;;5015547;28;20235;-57
2022/01/01 01:09:30;;;;;;;22.97;16.23;;;;;;;;;;5000004;28;20350;-57
2022/01/01 01:11:56;;;;;;;23.13;17.40;;;;;;;;;;5007312;28;20236;-57
2022/01/01 01:14:24;;;;;;;24.20;17.87;;;;;;;;;;5008830;28;20297;-57
2022/01/01 01:16:50;;;;;;;35.27;18.33;;;;;;;;;;5011626;28;20547;-57
2022/01/01 01:19:16;;;;;;;31.67;19.33;;;;;;;;;;5003930;28;20335;-57
2022/01/01 01:21:44;;;;;;;29.20;19.20;;;;;;;;;;5001806;28;20232;-56
2022/01/01 01:24:10;;;;;;;30.93;21.77;;;;;;;;;;5012991;28;20248;-57
2022/01/01 01:26:36;;;;;;;30.60;20.43;;;;;;;;;;5010320;28;20239;-57
2022/01/01 01:29:03;;;;;;;31.00;20.33;;;;;;;;;;5008472;28;20221;-56
2022/01/01 01:31:30;;;;;;;28.83;19.97;;;;;;;;;;5009583;28;20793;-57
2022/01/01 01:33:56;;;;;;;34.27;20.67;;;;;;;;;;5010246;28;20743;-57
2022/01/01 01:36:22;;;;;;;26.57;20.47;;;;;;;;;;5010156;28;20245;-57
2022/01/01 01:38:48;;;;;;;30.53;19.27;;;;;;;;;;5006872;28;20226;-57
2022/01/01 01:41:14;;;;;;;29.67;19.03;;;;;;;;;;5009210;28;20370;-57
2022/01/01 01:43:40;;;;;;;29.53;18.23;;;;;;;;;;5007043;28;20236;-57
2022/01/01 01:46:09;;;;;;;24.73;16.23;;;;;;;;;;4998249;28;20662;-56
2022/01/01 01:48:35;;;;;;;26.00;17.67;;;;;;;;;;5004739;28;20231;-57
2022/01/01 01:51:01;;;;;;;33.23;18.13;;;;;;;;;;5009616;28;20274;-57
2022/01/01 01:53:27;;;;;;;27.10;17.60;;;;;;;;;;5010730;28;20244;-57
2022/01/01 01:55:54;;;;;;;28.10;16.77;;;;;;;;;;5008103;28;20243;-57
2022/01/01 01:58:20;;;;;;;26.30;17.53;;;;;;;;;;5012199;28;20281;-57
2022/01/01 02:03:11;;;;;;;25.60;16.23;;;;;;;;;;5002911;28;20232;-56
2022/01/01 02:05:38;;;;;;;25.37;16.10;;;;;;;;;;5014040;28;20239;-56
2022/01/01 02:08:04;;;;;;;24.47;15.37;;;;;;;;;;5007861;28;21274;-57
2022/01/01 02:10:31;;;;;;;26.57;15.57;;;;;;;;;;5004218;28;20323;-57
2022/01/01 02:12:57;;;;;;;23.30;14.47;;;;;;;;;;5003958;28;20660;-57
2022/01/01 02:15:44;;;;;;;24.40;14.57;;;;;;;;;;5004871;28;20239;-57
2022/01/01 02:18:10;;;;;;;23.33;14.00;;;;;;;;;;5001908;28;20589;-57
2022/01/01 02:20:36;;;;;;;22.60;14.20;;;;;;;;;;5003297;28;20471;-57
2022/01/01 02:23:02;;;;;;;23.93;14.37;;;;;;;;;;4996343;28;20700;-57
2022/01/01 02:25:28;;;;;;;25.33;13.20;;;;;;;;;;4998548;28;20331;-57
2022/01/01 02:27:55;;;;;;;24.97;13.60;;;;;;;;;;5008780;28;20236;-57
2022/01/01 02:30:21;;;;;;;23.93;13.67;;;;;;;;;;5010762;28;20301;-57
2022/01/01 02:32:46;;;;;;;21.73;13.23;;;;;;;;;;5013821;28;20236;-57
2022/01/01 02:35:13;;;;;;;22.20;12.73;;;;;;;;;;5020087;28;20371;-57
2022/01/01 02:37:39;;;;;;;22.17;13.33;;;;;;;;;;5014776;28;20622;-57
2022/01/01 02:40:06;;;;;;;22.67;12.93;;;;;;;;;;5013545;28;20608;-57
2022/01/01 02:42:32;;;;;;;23.03;12.87;;;;;;;;;;5012898;28;20263;-57
2022/01/01 02:44:59;;;;;;;20.10;12.37;;;;;;;;;;5010813;28;20299;-56
2022/01/01 02:47:25;;;;;;;24.00;12.40;;;;;;;;;;5011788;28;20237;-57
2022/01/01 02:49:51;;;;;;;18.67;12.43;;;;;;;;;;5017911;28;20698;-57
2022/01/01 02:52:17;;;;;;;18.67;11.97;;;;;;;;;;5007082;28;20231;-57
2022/01/01 02:54:43;;;;;;;18.13;12.20;;;;;;;;;;5013452;28;20270;-56
2022/01/01 02:57:09;;;;;;;19.53;12.13;;;;;;;;;;5010133;28;20772;-56
2022/01/01 02:59:35;;;;;;;23.93;12.00;;;;;;;;;;5011373;28;20238;-56
2022/01/01 03:02:01;;;;;;;20.40;11.57;;;;;;;;;;5012766;28;20339;-56
2022/01/01 03:04:27;;;;;;;17.90;12.27;;;;;;;;;;5016173;28;20642;-56
2022/01/01 03:06:55;;;;;;;19.53;11.10;;;;;;;;;;5019132;28;20345;-56
2022/01/01 03:09:23;;;;;;;19.43;11.67;;;;;;;;;;5011773;28;20282;-56
2022/01/01 03:11:49;;;;;;;17.70;11.80;;;;;;;;;;5005089;28;20826;-58
2022/01/01 03:14:17;;;;;;;18.63;11.70;;;;;;;;;;5011696;28;20640;-58
2022/01/01 03:16:46;;;;;;;19.00;11.63;;;;;;;;;;5006881;28;20308;-56
2022/01/01 03:19:12;;;;;;;19.80;11.37;;;;;;;;;;5011040;28;20259;-55
2022/01/01 03:21:38;;;;;;;18.10;11.73;;;;;;;;;;5008250;28;20265;-56
2022/01/01 03:24:04;;;;;;;18.80;11.80;;;;;;;;;;5005094;28;20260;-57
2022/01/01 03:26:30;;;;;;;19.53;11.97;;;;;;;;;;5002023;28;20244;-57
2022/01/01 03:28:56;;;;;;;20.23;11.77;;;;;;;;;;5014250;28;20716;-57
2022/01/01 03:31:24;;;;;;;23.50;11.53;;;;;;;;;;5002591;28;20297;-56
2022/01/01 03:33:50;;;;;;;21.27;11.97;;;;;;;;;;5006684;28;20230;-57
2022/01/01 03:36:16;;;;;;;20.73;10.60;;;;;;;;;;5006692;28;20244;-57
2022/01/01 03:38:42;;;;;;;17.80;11.37;;;;;;;;;;5012046;28;20242;-57
2022/01/01 03:41:08;;;;;;;19.67;11.60;;;;;;;;;;5007916;28;20285;-56
2022/01/01 03:43:34;;;;;;;17.73;11.07;;;;;;;;;;5012614;28;20240;-58
2022/01/01 03:46:00;;;;;;;18.27;10.63;;;;;;;;;;5011869;28;20232;-57
2022/01/01 03:48:26;;;;;;;21.77;11.43;;;;;;;;;;5001373;28;22778;-57
2022/01/01 03:50:52;;;;;;;15.27;10.40;;;;;;;;;;5007524;28;20692;-59
2022/01/01 03:53:18;;;;;;;18.23;10.77;;;;;;;;;;5011719;28;20627;-57
2022/01/01 03:55:44;;;;;;;15.80;10.23;;;;;;;;;;5007603;28;20247;-57
2022/01/01 03:58:10;;;;;;;15.17;9.83;;;;;;;;;;4997376;28;20781;-57
2022/01/01 04:00:39;;;;;;;16.70;10.00;;;;;;;;;;5004557;28;20237;-56
2022/01/01 04:03:09;;;;;;;16.80;10.23;;;;;;;;;;5007181;28;20232;-56
2022/01/01 04:05:35;;;;;;;13.80;9.37;;;;;;;;;;5010333;28;20224;-55
2022/01/01 04:08:02;;;;;;;15.03;10.27;;;;;;;;;;5008020;28;20430;-58
2022/01/01 04:10:30;;;;;;;17.40;9.17;;;;;;;;;;5000153;28;20861;-59
2022/01/01 04:12:56;;;;;;;18.20;10.07;;;;;;;;;;4999340;28;20230;-58
2022/01/01 04:15:22;;;;;;;13.27;9.40;;;;;;;;;;4998237;28;20327;-58
2022/01/01 04:17:48;;;;;;;15.37;9.13;;;;;;;;;;5003235;28;20714;-58
2022/01/01 04:20:14;;;;;;;16.10;9.10;;;;;;;;;;4998196;28;20966;-58
2022/01/01 04:22:40;;;;;;;14.50;8.90;;;;;;;;;;5004850;28;20233;-58
2022/01/01 04:25:06;;;;;;;15.63;8.60;;;;;;;;;;4994920;28;20959;-58
2022/01/01 04:27:32;;;;;;;14.97;8.97;;;;;;;;;;5002680;28;20599;-59
2022/01/01 04:29:58;;;;;;;17.00;8.93;;;;;;;;;;4999436;28;20240;-58
2022/01/01 04:32:24;;;;;;;19.37;9.43;;;;;;;;;;4994672;28;20260;-58
2022/01/01 04:34:50;;;;;;;15.93;7.97;;;;;;;;;;5007358;28;20311;-56
2022/01/01 04:37:20;;;;;;;15.20;9.27;;;;;;;;;;5018281;28;20411;-56
2022/01/01 04:39:49;;;;;;;15.03;8.50;;;;;;;;;;5015882;28;20239;-58
2022/01/01 04:42:15;;;;;;;15.03;8.20;;;;;;;;;;5017227;28;20224;-57
2022/01/01 04:44:41;;;;;;;13.90;8.70;;;;;;;;;;5019549;28;20823;-58
2022/01/01 04:47:07;;;;;;;13.33;8.87;;;;;;;;;;5016749;28;20247;-58
2022/01/01 04:49:33;;;;;;;16.33;8.37;;;;;;;;;;5018470;28;20237;-58
2022/01/01 04:51:59;;;;;;;14.93;7.43;;;;;;;;;;5009123;28;20729;-58
2022/01/01 04:54:25;;;;;;;13.73;7.70;;;;;;;;;;5015107;28;20239;-58
2022/01/01 04:56:51;;;;;;;10.90;6.63;;;;;;;;;;5014760;28;20240;-57
2022/01/01 04:59:17;;;;;;;12.47;7.30;;;;;;;;;;5008745;28;20302;-58
2022/01/01 05:01:43;;;;;;;11.70;6.33;;;;;;;;;;5007662;28;20779;-58
2022/01/01 05:04:10;;;;;;;12.00;6.13;;;;;;;;;;5003642;28;20240;-58
2022/01/01 05:06:35;;;;;;;12.63;5.93;;;;;;;;;;5008136;28;20713;-58
2022/01/01 05:09:01;;;;;;;12.93;5.60;;;;;;;;;;4998134;28;20302;-58
2022/01/01 05:11:27;;;;;;;13.00;5.47;;;;;;;;;;4997322;28;20493;-58
2022/01/01 05:13:54;;;;;;;11.67;6.23;;;;;;;;;;4995800;28;20238;-58
2022/01/01 05:16:20;;;;;;;9.97;5.50;;;;;;;;;;4988187;28;20757;-58
2022/01/01 05:18:46;;;;;;;13.63;5.50;;;;;;;;;;4997050;28;20242;-58
2022/01/01 05:21:12;;;;;;;12.17;5.87;;;;;;;;;;5005570;28;20254;-58
2022/01/01 05:23:38;;;;;;;12.77;5.30;;;;;;;;;;5019374;28;20232;-57
2022/01/01 05:26:04;;;;;;;9.30;5.33;;;;;;;;;;4997667;28;20768;-57
2022/01/01 05:28:30;;;;;;;11.47;4.77;;;;;;;;;;4997638;28;20694;-58
2022/01/01 05:30:56;;;;;;;13.87;5.07;;;;;;;;;;5002290;28;20236;-58
2022/01/01 05:33:22;;;;;;;11.73;4.50;;;;;;;;;;5003165;28;20235;-58
2022/01/01 05:35:48;;;;;;;10.20;5.03;;;;;;;;;;5013794;28;20683;-58
2022/01/01 05:38:14;;;;;;;10.43;5.07;;;;;;;;;;5015490;28;20680;-58
2022/01/01 05:40:40;;;;;;;9.23;4.80;;;;;;;;;;5014729;28;20308;-57
2022/01/01 05:43:12;;;;;;;7.37;4.47;;;;;;;;;;5012745;28;20227;-57
2022/01/01 05:45:38;;;;;;;10.70;5.20;;;;;;;;;;5011886;28;20687;-58
2022/01/01 05:48:04;;;;;;;12.07;4.67;;;;;;;;;;5003592;28;20746;-58
2022/01/01 05:50:30;;;;;;;11.47;5.07;;;;;;;;;;5007119;28;20224;-58
2022/01/01 05:52:56;;;;;;;12.33;4.67;;;;;;;;;;5008390;28;20520;-58
2022/01/01 05:55:22;;;;;;;12.73;4.43;;;;;;;;;;5007556;28;20235;-58
2022/01/01 05:57:48;;;;;;;9.23;4.27;;;;;;;;;;5010290;28;20271;-57
2022/01/01 06:00:14;;;;;;;6.60;4.07;;;;;;;;;;5015196;28;20234;-58
2022/01/01 06:02:40;;;;;;;11.47;4.30;;;;;;;;;;5013789;28;20759;-58
2022/01/01 06:05:07;;;;;;;9.93;4.47;;;;;;;;;;5009811;28;20794;-57
2022/01/01 06:07:33;;;;;;;13.27;4.50;;;;;;;;;;5014538;28;20332;-57
2022/01/01 06:09:59;;;;;;;11.50;4.50;;;;;;;;;;5008116;28;20242;-58
2022/01/01 06:12:25;;;;;;;8.43;4.50;;;;;;;;;;5003688;28;20252;-58
2022/01/01 06:14:51;;;;;;;11.07;5.20;;;;;;;;;;5005686;28;20331;-58
2022/01/01 06:17:17;;;;;;;7.03;4.20;;;;;;;;;;5007672;28;20604;-58
2022/01/01 06:19:43;;;;;;;9.87;4.43;;;;;;;;;;5004294;28;20329;-57
2022/01/01 06:22:09;;;;;;;10.63;4.70;;;;;;;;;;4996110;28;20232;-58
2022/01/01 06:24:35;;;;;;;8.87;4.37;;;;;;;;;;5002899;28;20806;-58
2022/01/01 06:27:01;;;;;;;11.93;4.40;;;;;;;;;;4983959;28;20236;-57
2022/01/01 06:29:27;;;;;;;9.87;4.30;;;;;;;;;;4982382;28;20800;-58
2022/01/01 06:31:53;;;;;;;10.60;4.47;;;;;;;;;;4998566;28;20239;-58
2022/01/01 06:34:19;;;;;;;11.40;4.13;;;;;;;;;;5001212;28;20232;-58
2022/01/01 06:36:45;;;;;;;10.43;4.40;;;;;;;;;;4999627;28;20248;-58
2022/01/01 06:39:11;;;;;;;11.97;4.40;;;;;;;;;;5002115;28;20250;-58
2022/01/01 06:41:37;;;;;;;10.93;4.30;;;;;;;;;;4995258;28;20237;-58
2022/01/01 06:44:03;;;;;;;7.27;3.70;;;;;;;;;;4994030;28;21262;-58
2022/01/01 06:46:29;;;;;;;10.17;3.70;;;;;;;;;;4996082;28;25123;-58
2022/01/01 06:48:55;;;;;;;11.27;4.23;;;;;;;;;;4996206;28;20236;-58
2022/01/01 06:51:21;;;;;;;10.33;3.80;;;;;;;;;;5002724;28;22605;-58
2022/01/01 06:53:47;;;;;;;8.10;4.20;;;;;;;;;;4998864;28;20236;-57
2022/01/01 06:56:13;;;;;;;6.43;3.70;;;;;;;;;;4988305;28;20323;-57
2022/01/01 06:58:39;;;;;;;10.53;3.47;;;;;;;;;;4993782;28;20282;-58
2022/01/01 07:01:05;;;;;;;8.83;3.83;;;;;;;;;;4995812;28;20245;-58
2022/01/01 07:03:31;;;;;;;9.20;3.37;;;;;;;;;;4989248;28;20232;-58
2022/01/01 07:05:57;;;;;;;7.73;3.77;;;;;;;;;;5000883;28;20648;-58
2022/01/01 07:08:23;;;;;;;11.57;3.57;;;;;;;;;;5004349;28;20260;-58
2022/01/01 07:10:49;;;;;;;10.10;3.90;;;;;;;;;;5007402;28;20243;-58
2022/01/01 07:13:15;;;;;;;8.67;3.50;;;;;;;;;;5005971;28;20234;-57
2022/01/01 07:15:42;;;;;;;9.70;3.50;;;;;;;;;;4994717;28;20247;-58
2022/01/01 07:18:08;;;;;;;9.53;3.93;;;;;;;;;;5001177;28;20266;-58
2022/01/01 07:20:34;;;;;;;10.80;3.90;;;;;;;;;;4986408;28;20231;-58
2022/01/01 07:23:00;;;;;;;9.30;3.90;;;;;;;;;;5000327;28;20263;-58
2022/01/01 07:25:26;;;;;;;8.30;3.70;;;;;;;;;;4995757;28;20233;-58
2022/01/01 07:27:52;;;;;;;10.67;3.70;;;;;;;;;;4993273;28;20737;-58
2022/01/01 07:30:18;;;;;;;8.60;3.90;;;;;;;;;;5007638;28;20286;-58
2022/01/01 07:32:44;;;;;;;9.83;3.63;;;;;;;;;;5002070;28;20327;-58
2022/01/01 07:35:10;;;;;;;7.97;3.60;;;;;;;;;;4999470;28;20714;-58
2022/01/01 07:37:36;;;;;;;10.03;3.97;;;;;;;;;;4999177;28;20240;-58
2022/01/01 07:40:03;;;;;;;11.07;4.37;;;;;;;;;;5006762;28;20738;-58
2022/01/01 07:42:29;;;;;;;9.00;3.70;;;;;;;;;;5005689;28;20266;-58
2022/01/01 07:44:55;;;;;;;8.93;3.63;;;;;;;;;;4990107;28;20366;-58
2022/01/01 07:47:21;;;;;;;6.27;3.43;;;;;;;;;;4987983;28;20376;-58
2022/01/01 07:49:47;;;;;;;9.23;3.40;;;;;;;;;;5002401;28;20550;-58
2022/01/01 07:52:13;;;;;;;11.20;3.50;;;;;;;;;;5004344;28;20235;-57
2022/01/01 07:54:39;;;;;;;11.20;3.93;;;;;;;;;;4997701;28;20252;-58
2022/01/01 07:57:05;;;;;;;7.60;3.57;;;;;;;;;;5002670;28;20233;-58
2022/01/01 07:59:31;;;;;;;7.67;3.70;;;;;;;;;;4991830;28;20250;-58
2022/01/01 08:01:56;;;;;;;11.50;3.40;;;;;;;;;;4995939;28;20228;-57
2022/01/01 08:04:22;;;;;;;8.87;3.50;;;;;;;;;;4999840;28;20265;-58
2022/01/01 08:06:48;;;;;;;7.87;3.80;;;;;;;;;;5007952;28;20241;-57
2022/01/01 08:09:16;;;;;;;10.33;3.23;;;;;;;;;;5009341;28;20231;-57
2022/01/01 08:11:42;;;;;;;9.13;3.40;;;;;;;;;;5012979;28;20313;-57
2022/01/01 08:14:08;;;;;;;9.47;3.50;;;;;;;;;;4997840;28;20266;-58
2022/01/01 08:16:34;;;;;;;11.57;3.60;;;;;;;;;;5005222;28;20269;-57
2022/01/01 08:19:00;;;;;;;7.77;3.40;;;;;;;;;;5006313;28;20270;-57
2022/01/01 08:21:26;;;;;;;8.37;3.30;;;;;;;;;;5004689;28;20578;-57
2022/01/01 08:23:53;;;;;;;7.90;3.07;;;;;;;;;;5002592;28;20243;-58
2022/01/01 08:26:19;;;;;;;8.57;3.77;;;;;;;;;;4996587;28;20229;-58
2022/01/01 08:28:45;;;;;;;8.70;3.20;;;;;;;;;;5006173;28;21250;-58
2022/01/01 08:31:11;;;;;;;10.40;3.77;;;;;;;;;;5005514;28;20637;-58
2022/01/01 08:33:37;;;;;;;9.57;3.47;;;;;;;;;;5007554;28;20237;-58
2022/01/01 08:36:03;;;;;;;5.30;2.90;;;;;;;;;;5010426;28;20298;-58
2022/01/01 08:38:30;;;;;;;8.23;2.83;;;;;;;;;;5013101;28;20341;-57
2022/01/01 08:40:56;;;;;;;7.23;3.30;;;;;;;;;;5013481;28;20244;-57
2022/01/01 08:43:25;;;;;;;7.57;3.30;;;;;;;;;;5014949;28;20623;-58
2022/01/01 08:45:50;;;;;;;7.97;2.90;;;;;;;;;;5017134;28;20679;-57
2022/01/01 08:48:16;;;;;;;7.97;3.30;;;;;;;;;;5018254;28;20228;-58
2022/01/01 08:50:43;;;;;;;6.63;3.00;;;;;;;;;;5010718;28;20237;-58
2022/01/01 08:53:09;;;;;;;6.17;3.00;;;;;;;;;;5009003;28;20535;-57
2022/01/01 08:55:35;;;;;;;7.83;3.30;;;;;;;;;;5002628;28;20245;-57
2022/01/01 08:58:01;;;;;;;8.27;3.20;;;;;;;;;;5005038;28;20242;-58
2022/01/01 09:00:27;;;;;;;9.27;3.23;;;;;;;;;;5008272;28;20229;-57
2022/01/01 09:02:53;;;;;;;6.53;3.00;;;;;;;;;;5006499;28;20247;-57
2022/01/01 09:05:19;;;;;;;11.57;3.47;;;;;;;;;;4998770;28;20310;-58
2022/01/01 09:07:45;;;;;;;6.53;3.10;;;;;;;;;;5017297;28;20339;-58
2022/01/01 09:10:11;;;;;;;5.60;2.90;;;;;;;;;;5010990;28;22145;-58
2022/01/01 09:12:37;;;;;;;8.37;3.20;;;;;;;;;;5015997;28;20231;-58
2022/01/01 09:15:03;;;;;;;5.60;2.83;;;;;;;;;;5009517;28;20228;-55
2022/01/01 09:17:29;;;;;;;7.43;3.00;;;;;;;;;;5003005;28;21812;-56
2022/01/01 09:19:55;;;;;;;6.30;2.93;;;;;;;;;;4995968;28;20698;-56
2022/01/01 09:22:21;;;;;;;7.33;3.00;;;;;;;;;;5003538;28;20224;-56
2022/01/01 09:24:47;;;;;;;5.70;2.97;;;;;;;;;;4998717;28;20309;-56
2022/01/01 09:27:13;;;;;;;8.10;3.20;;;;;;;;;;4998239;28;20243;-56
2022/01/01 09:29:39;;;;;;;5.13;2.90;;;;;;;;;;5004101;28;20245;-56
2022/01/01 09:32:06;;;;;;;6.93;3.40;;;;;;;;;;4999030;28;20310;-56
2022/01/01 09:34:32;;;;;;;5.83;3.17;;;;;;;;;;5006351;28;20231;-57
2022/01/01 09:36:57;;;;;;;6.40;3.07;;;;;;;;;;5001546;28;20270;-57
2022/01/01 09:39:25;;;;;;;5.10;3.23;;;;;;;;;;5010723;28;20294;-56
2022/01/01 09:41:51;;;;;;;5.40;3.13;;;;;;;;;;5004090;28;20287;-56
2022/01/01 09:44:17;;;;;;;6.47;3.10;;;;;;;;;;5002269;28;20229;-57
2022/01/01 09:46:44;;;;;;;7.07;3.00;;;;;;;;;;5009470;28;20550;-56
2022/01/01 09:49:10;;;;;;;5.00;2.93;;;;;;;;;;5001396;28;20237;-56
2022/01/01 09:51:36;;;;;;;9.00;3.07;;;;;;;;;;5000298;28;20302;-56
2022/01/01 09:54:02;;;;;;;5.87;3.13;;;;;;;;;;4999744;28;20921;-56
2022/01/01 09:56:28;;;;;;;4.97;2.73;;;;;;;;;;5006943;28;20403;-56
2022/01/01 09:58:54;;;;;;;6.57;3.20;;;;;;;;;;5011329;28;20232;-56
2022/01/01 10:01:20;;;;;;;5.63;3.07;;;;;;;;;;5009056;28;20275;-56
2022/01/01 10:03:48;;;;;;;6.50;2.90;;;;;;;;;;5023194;28;20240;-56
2022/01/01 10:06:15;;;;;;;5.70;3.10;;;;;;;;;;5026382;28;20247;-56
2022/01/01 10:08:41;;;;;;;6.50;3.30;;;;;;;;;;5013207;28;20236;-55
2022/01/01 10:11:08;;;;;;;8.17;3.50;;;;;;;;;;5016506;28;20242;-58
2022/01/01 10:13:37;;;;;;;5.90;3.20;;;;;;;;;;5017606;28;20271;-55
2022/01/01 10:16:04;;;;;;;5.23;2.93;;;;;;;;;;5009905;28;20340;-56
2022/01/01 10:18:34;;;;;;;6.60;3.47;;;;;;;;;;5013376;28;20264;-56
2022/01/01 10:21:02;;;;;;;5.97;3.27;;;;;;;;;;5014992;28;20331;-56
2022/01/01 10:23:30;;;;;;;6.00;3.40;;;;;;;;;;5013953;28;20243;-56
2022/01/01 10:29:28;;;;;;;6.67;3.30;;;;;;;;;;4998727;28;20787;-55
2022/01/01 10:31:58;;;;;;;5.00;3.20;;;;;;;;;;4996456;28;20225;-55
2022/01/01 10:34:34;;;;;;;4.03;3.10;;;;;;;;;;5016495;28;20858;-55
2022/01/01 10:37:00;;;;;;;6.70;3.53;;;;;;;;;;5020924;28;20239;-55
2022/01/01 10:39:26;;;;;;;6.20;3.50;;;;;;;;;;5022972;28;20236;-57
2022/01/01 10:41:53;;;;;;;7.20;3.10;;;;;;;;;;5024450;28;20233;-56
2022/01/01 10:44:22;;;;;;;6.37;3.43;;;;;;;;;;5022146;28;20662;-58
2022/01/01 10:46:49;;;;;;;4.33;2.63;;;;;;;;;;5015321;28;20237;-58
2022/01/01 10:52:17;;;;;;;4.83;2.60;;;;;;;;;;4995470;28;20351;-57
2022/01/01 10:54:53;;;;;;;4.10;2.70;;;;;;;;;;5012904;28;20713;-58
2022/01/01 10:57:29;;;;;;;4.13;2.80;;;;;;;;;;5008699;28;20246;-58
2022/01/01 11:00:05;;;;;;;4.33;2.70;;;;;;;;;;5006098;28;20236;-58
2022/01/01 11:02:34;;;;;;;8.40;2.93;;;;;;;;;;4999234;28;20240;-58
2022/01/01 11:05:00;;;;;;;6.67;2.97;;;;;;;;;;5002690;28;20229;-58
2022/01/01 11:07:29;;;;;;;5.70;3.17;;;;;;;;;;5010602;28;20702;-57
2022/01/01 11:09:55;;;;;;;5.07;3.30;;;;;;;;;;5010846;28;20310;-58
2022/01/01 11:12:22;;;;;;;4.67;3.20;;;;;;;;;;5018933;28;20224;-57
2022/01/01 11:14:48;;;;;;;3.37;2.60;;;;;;;;;;5015975;28;20271;-58
2022/01/01 11:17:14;;;;;;;5.60;2.87;;;;;;;;;;5008887;28;20271;-57
2022/01/01 11:19:40;;;;;;;4.77;2.90;;;;;;;;;;5009443;28;20831;-58
2022/01/01 11:22:06;;;;;;;3.63;2.73;;;;;;;;;;5008397;28;20240;-58
2022/01/01 11:24:32;;;;;;;4.53;2.73;;;;;;;;;;5008814;28;20236;-57
2022/01/01 11:26:58;;;;;;;4.33;2.70;;;;;;;;;;5005666;28;20604;-57
2022/01/01 11:29:24;;;;;;;4.83;2.90;;;;;;;;;;5004548;28;20461;-58
2022/01/01 11:31:51;;;;;;;4.00;2.70;;;;;;;;;;5011254;28;21004;-58
2022/01/01 11:34:17;;;;;;;5.87;3.07;;;;;;;;;;5015287;28;20230;-57
2022/01/01 11:36:43;;;;;;;4.40;2.80;;;;;;;;;;5013021;28;20713;-57
2022/01/01 11:39:13;;;;;;;4.63;2.60;;;;;;;;;;5009927;28;20721;-58
2022/01/01 11:41:39;;;;;;;4.87;2.87;;;;;;;;;;5004533;28;20233;-57
2022/01/01 11:44:22;;;;;;;3.70;2.63;;;;;;;;;;5011692;28;20232;-57
2022/01/01 11:46:58;;;;;;;5.10;2.70;;;;;;;;;;5016539;28;20575;-58
2022/01/01 11:49:28;;;;;;;3.60;2.70;;;;;;;;;;5013315;28;20238;-58
2022/01/01 11:51:54;;;;;;;3.73;2.80;;;;;;;;;;5013719;28;20274;-58
2022/01/01 11:54:26;;;;;;;4.10;2.77;;;;;;;;;;5023560;28;20315;-58
2022/01/01 11:56:53;;;;;;;3.40;2.57;;;;;;;;;;5019633;28;20239;-58
2022/01/01 11:59:19;;;;;;;3.97;2.50;;;;;;;;;;5015580;28;20224;-57
2022/01/01 12:01:46;;;;;;;4.50;2.67;;;;;;;;;;5014810;28;20232;-58
2022/01/01 12:04:42;;;;;;;4.10;2.53;;;;;;;;;;5011946;28;20232;-57
2022/01/01 12:07:27;;;;;;;3.53;2.50;;;;;;;;;;5017122;28;20597;-58
2022/01/01 12:10:03;;;;;;;3.93;2.63;;;;;;;;;;5013323;28;20639;-58
2022/01/01 12:12:50;;;;;;;4.60;2.77;;;;;;;;;;5007864;28;20246;-58
2022/01/01 12:15:25;;;;;;;4.57;2.83;;;;;;;;;;4999153;28;20719;-58
2022/01/01 12:17:53;;;;;;;4.10;2.50;;;;;;;;;;5008163;28;20233;-58
2022/01/01 12:20:20;;;;;;;3.93;2.27;;;;;;;;;;5012881;28;20239;-58
2022/01/01 12:22:46;;;;;;;4.90;2.70;;;;;;;;;;5014202;28;21038;-58
2022/01/01 12:25:16;;;;;;;3.93;2.33;;;;;;;;;;5014959;28;20224;-58
2022/01/01 12:27:42;;;;;;;4.68;2.35;;;;;;;;;;5015660;28;20236;-57
2022/01/01 12:30:08;;;;;;;4.17;2.47;;;;;;;;;;5005729;28;20236;-58
2022/01/01 12:32:45;;;;;;;2.65;1.95;;;;;;;;;;5013230;28;20250;-58
2022/01/01 12:35:15;;;;;;;2.60;2.10;;;;;;;;;;5006034;28;20371;-58
2022/01/01 12:37:41;;;;;;;3.33;2.20;;;;;;;;;;4995924;28;20291;-57
2022/01/01 12:40:08;;;;;;;5.57;2.10;;;;;;;;;;5005054;28;20782;-58
2022/01/01 12:42:34;;;;;;;4.40;2.60;;;;;;;;;;5005699;28;20243;-57
2022/01/01 12:45:01;;;;;;;5.63;2.92;;;;;;;;;;5000482;28;20407;-58
2022/01/01 12:47:27;;;;;;;3.83;2.30;;;;;;;;;;5003383;28;20739;-58
2022/01/01 12:49:53;;;;;;;4.35;2.47;;;;;;;;;;5011610;28;20243;-58
2022/01/01 12:52:23;;;;;;;2.70;2.30;;;;;;;;;;4994889;28;20228;-58
2022/01/01 12:54:51;;;;;;;4.43;2.50;;;;;;;;;;5000590;28;20732;-58
2022/01/01 12:57:20;;;;;;;3.28;2.25;;;;;;;;;;5004475;28;20244;-58
2022/01/01 12:59:49;;;;;;;3.15;2.40;;;;;;;;;;5009736;28;20500;-57
2022/01/01 13:02:15;;;;;;;3.05;2.40;;;;;;;;;;5002441;28;20258;-58
2022/01/01 13:04:41;;;;;;;3.80;2.50;;;;;;;;;;4992504;28;20230;-57
2022/01/01 13:07:07;;;;;;;5.55;2.40;;;;;;;;;;5002957;28;20719;-57
2022/01/01 13:09:33;;;;;;;3.03;2.38;;;;;;;;;;5002907;28;20236;-57
2022/01/01 13:12:03;;;;;;;3.33;2.53;;;;;;;;;;5009036;28;20234;-57
2022/01/01 13:14:30;;;;;;;2.83;2.40;;;;;;;;;;5016338;28;20241;-58
2022/01/01 13:16:56;;;;;;;4.35;2.60;;;;;;;;;;5016440;28;20306;-57
2022/01/01 13:19:23;;;;;;;3.43;2.93;;;;;;;;;;5013391;28;20232;-57
2022/01/01 13:21:49;;;;;;;4.57;2.83;;;;;;;;;;5016684;28;20274;-58
2022/01/01 13:24:15;;;;;;;4.70;2.80;;;;;;;;;;5010187;28;20248;-57
2022/01/01 13:26:43;;;;;;;4.37;2.60;;;;;;;;;;5012823;28;20225;-58
2022/01/01 13:29:09;;;;;;;3.10;2.67;;;;;;;;;;5009152;28;20224;-58
2022/01/01 13:31:36;;;;;;;3.77;2.80;;;;;;;;;;5012063;28;20228;-58
2022/01/01 13:34:02;;;;;;;4.03;2.87;;;;;;;;;;5010049;28;20354;-57
2022/01/01 13:36:28;;;;;;;3.23;2.80;;;;;;;;;;5005859;28;20260;-57
2022/01/01 13:38:54;;;;;;;3.20;2.97;;;;;;;;;;5012489;28;20319;-58
2022/01/01 13:41:20;;;;;;;4.30;3.17;;;;;;;;;;5017082;28;20254;-58
2022/01/01 13:43:46;;;;;;;2.80;2.57;;;;;;;;;;5011126;28;20334;-58
2022/01/01 13:46:12;;;;;;;3.53;2.93;;;;;;;;;;5016927;28;20786;-57
2022/01/01 13:48:43;;;;;;;3.07;2.80;;;;;;;;;;5003866;28;20234;-58
2022/01/01 13:51:09;;;;;;;3.20;2.90;;;;;;;;;;4993551;28;20286;-59
2022/01/01 13:53:35;;;;;;;2.70;2.50;;;;;;;;;;5003530;28;20311;-57
2022/01/01 13:56:03;;;;;;;4.17;2.80;;;;;;;;;;5006796;28;20679;-57
2022/01/01 13:58:29;;;;;;;4.03;2.87;;;;;;;;;;5001833;28;20291;-58
2022/01/01 14:00:56;;;;;;;3.27;2.70;;;;;;;;;;5004234;28;20232;-58
2022/01/01 14:03:23;;;;;;;2.90;2.60;;;;;;;;;;5013098;28;20662;-58
2022/01/01 14:05:49;;;;;;;4.10;3.00;;;;;;;;;;5004595;28;20293;-57
2022/01/01 14:08:19;;;;;;;3.80;2.80;;;;;;;;;;5018753;28;20243;-57
2022/01/01 14:10:58;;;;;;;3.20;2.90;;;;;;;;;;5014196;28;20235;-57
2022/01/01 14:13:28;;;;;;;3.50;3.17;;;;;;;;;;5010832;28;20756;-58
2022/01/01 14:15:54;;;;;;;2.90;2.70;;;;;;;;;;5021750;28;20726;-57
2022/01/01 14:18:26;;;;;;;3.63;3.10;;;;;;;;;;5017812;28;20231;-58
2022/01/01 14:20:54;;;;;;;3.60;2.97;;;;;;;;;;5022031;28;20392;-57
2022/01/01 14:23:33;;;;;;;4.37;3.10;;;;;;;;;;5021431;28;20228;-58
2022/01/01 14:26:00;;;;;;;3.47;2.90;;;;;;;;;;5003610;28;20251;-57
2022/01/01 14:28:26;;;;;;;3.67;2.77;;;;;;;;;;5018814;28;20645;-57
2022/01/01 14:30:52;;;;;;;3.50;3.20;;;;;;;;;;5021696;28;20236;-58
2022/01/01 14:33:19;;;;;;;3.07;2.80;;;;;;;;;;5017772;28;20247;-58
2022/01/01 14:35:45;;;;;;;3.80;3.00;;;;;;;;;;5018598;28;20235;-58
2022/01/01 14:38:11;;;;;;;3.93;2.50;;;;;;;;;;5013868;28;20239;-58
2022/01/01 14:40:38;;;;;;;3.07;2.27;;;;;;;;;;5005610;28;20279;-57